sensor_id;sensor_type;location;lat;lon;timestamp;pressure;altitude;pressure_sealevel;temperature;humidity
7309;BME280;3695;53.330;9.876;2023-06-24T00:01:50;102826.53;;;18.59;nan
7309;BME280;3695;53.330;9.876;2023-06-24T00:04:18;102824.06;;;18.82;nan
7309;BME280;3695;53.330;9.876;2023-06-24T00:06:46;102809.44;;;18.25;nan
7309;BME280;3695;53.330;9.876;2023-06-24T00:09:12;102834.00;;;18.14;nan
7309;BME280;3695;53.330;9.876;2023-06-24T00:11:39;102775.59;;;18.32;nan
7309;BME280;3695;53.330;9.876;2023-06-24T00:14:07;102778.34;;;18.00;nan
7309;BME280;3695;53.330;9.876;2023-06-24T00:16:34;102759.72;;;18.09;nan
7309;BME280;3695;53.330;9.876;2023-06-24T00:19:01;102785.88;;;18.11;nan
7309;BME280;3695;53.330;9.876;2023-06-24T00:21:29;102825.00;;;17.93;nan
7309;BME280;3695;53.330;9.876;2023-06-24T00:23:57;102984.34;;;17.92;nan
7309;BME280;3695;53.330;9.876;2023-06-24T00:26:24;103183.63;;;18.13;nan
7309;BME280;3695;53.330;9.876;2023-06-24T00:28:50;103435.53;;;18.17;nan
7309;BME280;3695;53.330;9.876;2023-06-24T00:31:17;103603.72;;;17.98;nan
7309;BME280;3695;53.330;9.876;2023-06-24T00:33:43;103763.53;;;18.21;nan
7309;BME280;3695;53.330;9.876;2023-06-24T00:36:10;103869.34;;;18.03;nan
7309;BME280;3695;53.330;9.876;2023-06-24T00:38:38;103952.94;;;17.85;nan
7309;BME280;3695;53.330;9.876;2023-06-24T00:41:05;104051.06;;;17.83;nan
7309;BME280;3695;53.330;9.876;2023-06-24T00:43:32;104094.84;;;17.77;nan
7309;BME280;3695;53.330;9.876;2023-06-24T00:45:58;104090.75;;;18.10;nan
7309;BME280;3695;53.330;9.876;2023-06-24T00:48:25;104086.59;;;18.29;nan
7309;BME280;3695;53.330;9.876;2023-06-24T00:50:51;104040.75;;;17.85;nan
7309;BME280;3695;53.330;9.876;2023-06-24T00:53:18;104046.03;;;17.87;nan
7309;BME280;3695;53.330;9.876;2023-06-24T00:55:51;104059.66;;;17.95;nan
7309;BME280;3695;53.330;9.876;2023-06-24T00:58:18;104079.13;;;17.71;nan
7309;BME280;3695;53.330;9.876;2023-06-24T01:00:47;104161.41;;;17.93;nan
7309;BME280;3695;53.330;9.876;2023-06-24T01:03:22;104226.56;;;17.77;nan
7309;BME280;3695;53.330;9.876;2023-06-24T01:05:48;104308.19;;;18.29;nan
7309;BME280;3695;53.330;9.876;2023-06-24T01:08:15;104263.53;;;18.12;nan
7309;BME280;3695;53.330;9.876;2023-06-24T01:10:42;104310.34;;;17.87;nan
7309;BME280;3695;53.330;9.876;2023-06-24T01:13:10;104339.13;;;17.69;nan
7309;BME280;3695;53.330;9.876;2023-06-24T01:15:36;104400.03;;;17.56;nan
7309;BME280;3695;53.330;9.876;2023-06-24T01:18:07;104502.03;;;17.68;nan
7309;BME280;3695;53.330;9.876;2023-06-24T01:20:41;104529.81;;;17.73;nan
7309;BME280;3695;53.330;9.876;2023-06-24T01:23:39;104598.72;;;17.86;nan
7309;BME280;3695;53.330;9.876;2023-06-24T01:26:21;104613.84;;;17.82;nan
7309;BME280;3695;53.330;9.876;2023-06-24T01:29:14;104601.47;;;17.61;nan
7309;BME280;3695;53.330;9.876;2023-06-24T01:31:50;104635.28;;;16.79;nan
7309;BME280;3695;53.330;9.876;2023-06-24T01:34:24;104981.31;;;16.89;nan
7309;BME280;3695;53.330;9.876;2023-06-24T01:37:00;105270.63;;;16.74;nan
7309;BME280;3695;53.330;9.876;2023-06-24T01:39:31;105670.53;;;17.16;nan
7309;BME280;3695;53.330;9.876;2023-06-24T01:42:05;106032.22;;;16.88;nan
7309;BME280;3695;53.330;9.876;2023-06-24T01:44:33;106439.72;;;16.78;nan
7309;BME280;3695;53.330;9.876;2023-06-24T01:47:05;107575.63;;;17.10;nan
7309;BME280;3695;53.330;9.876;2023-06-24T01:49:38;107830.31;;;16.72;nan
7309;BME280;3695;53.330;9.876;2023-06-24T01:52:07;108641.16;;;16.73;nan
7309;BME280;3695;53.330;9.876;2023-06-24T01:54:35;108893.88;;;16.64;nan
7309;BME280;3695;53.330;9.876;2023-06-24T01:57:04;108901.25;;;16.62;nan
7309;BME280;3695;53.330;9.876;2023-06-24T01:59:33;108498.09;;;16.82;nan
7309;BME280;3695;53.330;9.876;2023-06-24T02:02:03;108375.88;;;17.13;nan
7309;BME280;3695;53.330;9.876;2023-06-24T02:04:31;108252.72;;;16.71;nan
7309;BME280;3695;53.330;9.876;2023-06-24T02:06:58;108287.00;;;16.79;nan
7309;BME280;3695;53.330;9.876;2023-06-24T02:09:26;108359.56;;;17.10;nan
7309;BME280;3695;53.330;9.876;2023-06-24T02:11:54;108321.25;;;16.89;nan
7309;BME280;3695;53.330;9.876;2023-06-24T02:14:21;108326.38;;;17.14;nan
7309;BME280;3695;53.330;9.876;2023-06-24T02:16:49;108301.56;;;16.98;nan
7309;BME280;3695;53.330;9.876;2023-06-24T02:19:23;108279.50;;;16.83;nan
7309;BME280;3695;53.330;9.876;2023-06-24T02:21:51;108236.84;;;16.58;nan
7309;BME280;3695;53.330;9.876;2023-06-24T02:24:19;108195.94;;;16.54;nan
7309;BME280;3695;53.330;9.876;2023-06-24T02:26:46;108117.53;;;16.50;nan
7309;BME280;3695;53.330;9.876;2023-06-24T02:29:14;108044.50;;;16.49;nan
7309;BME280;3695;53.330;9.876;2023-06-24T02:31:40;108014.69;;;16.60;nan
7309;BME280;3695;53.330;9.876;2023-06-24T02:34:07;107958.06;;;16.59;nan
7309;BME280;3695;53.330;9.876;2023-06-24T02:36:35;107840.03;;;16.29;nan
7309;BME280;3695;53.330;9.876;2023-06-24T02:39:01;107765.16;;;16.28;nan
7309;BME280;3695;53.330;9.876;2023-06-24T02:41:29;107694.69;;;16.46;nan
7309;BME280;3695;53.330;9.876;2023-06-24T02:43:55;107697.16;;;16.51;nan
7309;BME280;3695;53.330;9.876;2023-06-24T02:46:22;107691.16;;;16.28;nan
7309;BME280;3695;53.330;9.876;2023-06-24T02:48:49;107639.00;;;16.30;nan
7309;BME280;3695;53.330;9.876;2023-06-24T02:51:17;107568.31;;;16.05;nan
7309;BME280;3695;53.330;9.876;2023-06-24T02:53:46;107477.56;;;16.11;nan
7309;BME280;3695;53.330;9.876;2023-06-24T02:56:13;107363.13;;;16.16;nan
7309;BME280;3695;53.330;9.876;2023-06-24T02:58:42;106937.44;;;15.92;nan
7309;BME280;3695;53.330;9.876;2023-06-24T03:01:10;106967.09;;;16.12;nan
7309;BME280;3695;53.330;9.876;2023-06-24T03:03:37;106997.25;;;15.98;nan
7309;BME280;3695;53.330;9.876;2023-06-24T03:06:05;107062.56;;;16.18;nan
7309;BME280;3695;53.330;9.876;2023-06-24T03:08:31;106995.97;;;16.30;nan
7309;BME280;3695;53.330;9.876;2023-06-24T03:10:59;107140.97;;;16.33;nan
7309;BME280;3695;53.330;9.876;2023-06-24T03:13:26;107222.78;;;16.25;nan
7309;BME280;3695;53.330;9.876;2023-06-24T03:15:52;107455.91;;;16.66;nan
7309;BME280;3695;53.330;9.876;2023-06-24T03:18:20;107437.22;;;16.43;nan
7309;BME280;3695;53.330;9.876;2023-06-24T03:20:46;107318.09;;;16.63;nan
7309;BME280;3695;53.330;9.876;2023-06-24T03:23:13;107555.91;;;16.89;nan
7309;BME280;3695;53.330;9.876;2023-06-24T03:25:39;107638.50;;;16.53;nan
7309;BME280;3695;53.330;9.876;2023-06-24T03:28:07;107610.94;;;16.86;nan
7309;BME280;3695;53.330;9.876;2023-06-24T03:30:33;107658.38;;;16.88;nan
7309;BME280;3695;53.330;9.876;2023-06-24T03:33:00;107419.06;;;16.71;nan
7309;BME280;3695;53.330;9.876;2023-06-24T03:35:27;107244.44;;;17.12;nan
7309;BME280;3695;53.330;9.876;2023-06-24T03:37:55;107317.41;;;17.15;nan
7309;BME280;3695;53.330;9.876;2023-06-24T03:40:21;107429.41;;;17.49;nan
7309;BME280;3695;53.330;9.876;2023-06-24T03:42:47;107508.75;;;17.54;nan
7309;BME280;3695;53.330;9.876;2023-06-24T03:45:15;107529.91;;;17.66;nan
7309;BME280;3695;53.330;9.876;2023-06-24T03:47:42;107410.72;;;16.86;nan
7309;BME280;3695;53.330;9.876;2023-06-24T03:50:09;107003.53;;;16.66;nan
7309;BME280;3695;53.330;9.876;2023-06-24T03:52:36;106852.56;;;17.06;nan
7309;BME280;3695;53.330;9.876;2023-06-24T03:55:03;106889.22;;;16.92;nan
7309;BME280;3695;53.330;9.876;2023-06-24T03:57:30;106850.44;;;17.22;nan
7309;BME280;3695;53.330;9.876;2023-06-24T03:59:56;106874.66;;;17.28;nan
7309;BME280;3695;53.330;9.876;2023-06-24T04:02:24;106859.31;;;17.26;nan
7309;BME280;3695;53.330;9.876;2023-06-24T04:04:52;106792.53;;;17.14;nan
7309;BME280;3695;53.330;9.876;2023-06-24T04:07:21;106863.34;;;17.33;nan
7309;BME280;3695;53.330;9.876;2023-06-24T04:09:54;106859.22;;;16.78;nan
7309;BME280;3695;53.330;9.876;2023-06-24T04:12:20;106770.03;;;16.85;nan
7309;BME280;3695;53.330;9.876;2023-06-24T04:14:47;107856.22;;;17.14;nan
7309;BME280;3695;53.330;9.876;2023-06-24T04:17:13;107988.91;;;17.13;nan
7309;BME280;3695;53.330;9.876;2023-06-24T04:19:41;108182.28;;;16.88;nan
7309;BME280;3695;53.330;9.876;2023-06-24T04:22:08;108890.97;;;17.12;nan
7309;BME280;3695;53.330;9.876;2023-06-24T04:24:34;108928.88;;;17.03;nan
7309;BME280;3695;53.330;9.876;2023-06-24T04:27:01;108926.81;;;17.51;nan
7309;BME280;3695;53.330;9.876;2023-06-24T04:29:27;109290.78;;;17.86;nan
7309;BME280;3695;53.330;9.876;2023-06-24T04:31:53;109318.28;;;17.61;nan
7309;BME280;3695;53.330;9.876;2023-06-24T04:34:20;109493.72;;;17.74;nan
7309;BME280;3695;53.330;9.876;2023-06-24T04:36:48;109508.72;;;17.63;nan
7309;BME280;3695;53.330;9.876;2023-06-24T04:39:14;109507.44;;;17.47;nan
7309;BME280;3695;53.330;9.876;2023-06-24T04:41:41;109939.41;;;17.23;nan
7309;BME280;3695;53.330;9.876;2023-06-24T04:44:07;109923.13;;;17.15;nan
7309;BME280;3695;53.330;9.876;2023-06-24T04:46:33;110427.97;;;17.37;nan
7309;BME280;3695;53.330;9.876;2023-06-24T04:49:00;111307.84;;;17.83;nan
7309;BME280;3695;53.330;9.876;2023-06-24T04:51:27;111981.44;;;17.46;nan
7309;BME280;3695;53.330;9.876;2023-06-24T04:53:54;112673.25;;;18.02;nan
7309;BME280;3695;53.330;9.876;2023-06-24T04:56:21;113100.13;;;18.18;nan
7309;BME280;3695;53.330;9.876;2023-06-24T04:58:47;114376.78;;;17.97;nan
7309;BME280;3695;53.330;9.876;2023-06-24T05:01:14;114635.03;;;18.27;nan
7309;BME280;3695;53.330;9.876;2023-06-24T05:03:40;114482.31;;;17.75;nan
7309;BME280;3695;53.330;9.876;2023-06-24T05:06:06;114380.88;;;17.63;nan
7309;BME280;3695;53.330;9.876;2023-06-24T05:08:33;114468.25;;;17.90;nan
7309;BME280;3695;53.330;9.876;2023-06-24T05:11:01;114785.28;;;17.99;nan
7309;BME280;3695;53.330;9.876;2023-06-24T05:13:27;115130.00;;;18.45;nan
7309;BME280;3695;53.330;9.876;2023-06-24T05:15:54;115536.13;;;18.80;nan
7309;BME280;3695;53.330;9.876;2023-06-24T05:18:21;115297.72;;;18.21;nan
7309;BME280;3695;53.330;9.876;2023-06-24T05:20:51;115075.97;;;18.12;nan
7309;BME280;3695;53.330;9.876;2023-06-24T05:23:17;115369.28;;;18.70;nan
7309;BME280;3695;53.330;9.876;2023-06-24T05:25:44;115614.31;;;18.97;nan
7309;BME280;3695;53.330;9.876;2023-06-24T05:28:11;115121.84;;;18.11;nan
7309;BME280;3695;53.330;9.876;2023-06-24T05:30:38;115238.53;;;18.31;nan
7309;BME280;3695;53.330;9.876;2023-06-24T05:33:04;115578.94;;;19.06;nan
7309;BME280;3695;53.330;9.876;2023-06-24T05:35:31;115499.69;;;18.85;nan
7309;BME280;3695;53.330;9.876;2023-06-24T05:37:57;115447.56;;;18.74;nan
7309;BME280;3695;53.330;9.876;2023-06-24T05:40:23;115640.16;;;18.99;nan
7309;BME280;3695;53.330;9.876;2023-06-24T05:42:50;115599.91;;;19.02;nan
7309;BME280;3695;53.330;9.876;2023-06-24T05:45:18;115680.13;;;19.23;nan
7309;BME280;3695;53.330;9.876;2023-06-24T05:47:45;115653.13;;;19.34;nan
7309;BME280;3695;53.330;9.876;2023-06-24T05:50:12;115577.41;;;19.29;nan
7309;BME280;3695;53.330;9.876;2023-06-24T05:52:38;115505.19;;;18.85;nan
7309;BME280;3695;53.330;9.876;2023-06-24T05:55:05;115606.09;;;19.14;nan
7309;BME280;3695;53.330;9.876;2023-06-24T05:57:32;115741.00;;;19.26;nan
7309;BME280;3695;53.330;9.876;2023-06-24T05:59:58;115798.47;;;19.49;nan
7309;BME280;3695;53.330;9.876;2023-06-24T06:02:26;115801.22;;;19.49;nan
7309;BME280;3695;53.330;9.876;2023-06-24T06:04:52;115807.88;;;19.69;nan
7309;BME280;3695;53.330;9.876;2023-06-24T06:07:19;115750.84;;;19.70;nan
7309;BME280;3695;53.330;9.876;2023-06-24T06:09:46;115671.56;;;19.51;nan
7309;BME280;3695;53.330;9.876;2023-06-24T06:12:12;115656.31;;;19.75;nan
7309;BME280;3695;53.330;9.876;2023-06-24T06:14:39;115599.56;;;19.46;nan
7309;BME280;3695;53.330;9.876;2023-06-24T06:17:05;115657.19;;;19.40;nan
7309;BME280;3695;53.330;9.876;2023-06-24T06:19:33;115688.81;;;19.81;nan
7309;BME280;3695;53.330;9.876;2023-06-24T06:22:00;115495.75;;;19.68;nan
7309;BME280;3695;53.330;9.876;2023-06-24T06:24:26;114956.88;;;19.36;nan
7309;BME280;3695;53.330;9.876;2023-06-24T06:26:52;115390.13;;;20.10;nan
7309;BME280;3695;53.330;9.876;2023-06-24T06:29:19;115074.78;;;20.01;nan
7309;BME280;3695;53.330;9.876;2023-06-24T06:31:45;115072.13;;;20.04;nan
7309;BME280;3695;53.330;9.876;2023-06-24T06:34:12;115054.47;;;20.23;nan
7309;BME280;3695;53.330;9.876;2023-06-24T06:36:39;115065.38;;;20.41;nan
7309;BME280;3695;53.330;9.876;2023-06-24T06:39:06;115090.34;;;20.66;nan
7309;BME280;3695;53.330;9.876;2023-06-24T06:41:32;114771.97;;;20.05;nan
7309;BME280;3695;53.330;9.876;2023-06-24T06:43:59;115358.72;;;19.70;nan
7309;BME280;3695;53.330;9.876;2023-06-24T06:46:28;115335.25;;;19.60;nan
7309;BME280;3695;53.330;9.876;2023-06-24T06:48:55;115204.81;;;19.46;nan
7309;BME280;3695;53.330;9.876;2023-06-24T06:51:22;115337.03;;;19.23;nan
7309;BME280;3695;53.330;9.876;2023-06-24T06:53:51;115324.56;;;18.94;nan
7309;BME280;3695;53.330;9.876;2023-06-24T06:56:18;115683.91;;;19.58;nan
7309;BME280;3695;53.330;9.876;2023-06-24T06:58:44;115675.91;;;19.98;nan
7309;BME280;3695;53.330;9.876;2023-06-24T07:01:11;115491.63;;;20.15;nan
7309;BME280;3695;53.330;9.876;2023-06-24T07:03:37;115265.97;;;20.15;nan
7309;BME280;3695;53.330;9.876;2023-06-24T07:06:04;115186.06;;;20.20;nan
7309;BME280;3695;53.330;9.876;2023-06-24T07:08:30;115009.44;;;19.81;nan
7309;BME280;3695;53.330;9.876;2023-06-24T07:10:58;115073.38;;;19.69;nan
7309;BME280;3695;53.330;9.876;2023-06-24T07:13:25;115002.53;;;19.49;nan
7309;BME280;3695;53.330;9.876;2023-06-24T07:15:51;115221.19;;;20.01;nan
7309;BME280;3695;53.330;9.876;2023-06-24T07:18:18;115227.84;;;20.06;nan
7309;BME280;3695;53.330;9.876;2023-06-24T07:20:44;115340.31;;;20.30;nan
7309;BME280;3695;53.330;9.876;2023-06-24T07:23:10;115390.44;;;20.57;nan
7309;BME280;3695;53.330;9.876;2023-06-24T07:25:37;115033.88;;;20.15;nan
7309;BME280;3695;53.330;9.876;2023-06-24T07:28:05;115076.00;;;20.32;nan
7309;BME280;3695;53.330;9.876;2023-06-24T07:30:32;114701.16;;;20.59;nan
7309;BME280;3695;53.330;9.876;2023-06-24T07:32:58;114195.91;;;20.85;nan
7309;BME280;3695;53.330;9.876;2023-06-24T07:35:30;112099.72;;;20.51;nan
7309;BME280;3695;53.330;9.876;2023-06-24T07:37:56;110867.63;;;20.63;nan
7309;BME280;3695;53.330;9.876;2023-06-24T07:40:23;110225.22;;;20.09;nan
7309;BME280;3695;53.330;9.876;2023-06-24T07:42:49;109989.75;;;20.57;nan
7309;BME280;3695;53.330;9.876;2023-06-24T07:45:17;109933.06;;;21.13;nan
7309;BME280;3695;53.330;9.876;2023-06-24T07:47:43;110202.72;;;21.18;nan
7309;BME280;3695;53.330;9.876;2023-06-24T07:50:10;110078.34;;;21.62;nan
7309;BME280;3695;53.330;9.876;2023-06-24T07:52:37;109860.31;;;21.53;nan
7309;BME280;3695;53.330;9.876;2023-06-24T07:55:04;109809.19;;;21.22;nan
7309;BME280;3695;53.330;9.876;2023-06-24T07:57:31;109216.84;;;21.41;nan
7309;BME280;3695;53.330;9.876;2023-06-24T07:59:57;108091.00;;;21.80;nan
7309;BME280;3695;53.330;9.876;2023-06-24T08:02:25;106119.78;;;21.76;nan
7309;BME280;3695;53.330;9.876;2023-06-24T08:04:54;104548.84;;;21.06;nan
7309;BME280;3695;53.330;9.876;2023-06-24T08:07:21;103267.06;;;21.86;nan
7309;BME280;3695;53.330;9.876;2023-06-24T08:09:47;102477.19;;;22.05;nan
7309;BME280;3695;53.330;9.876;2023-06-24T08:12:13;102211.28;;;22.31;nan
7309;BME280;3695;53.330;9.876;2023-06-24T08:14:40;102333.16;;;21.74;nan
7309;BME280;3695;53.330;9.876;2023-06-24T08:17:06;102431.03;;;21.83;nan
7309;BME280;3695;53.330;9.876;2023-06-24T08:19:34;102418.19;;;21.55;nan
7309;BME280;3695;53.330;9.876;2023-06-24T08:22:00;102308.44;;;21.79;nan
7309;BME280;3695;53.330;9.876;2023-06-24T08:24:27;102557.50;;;22.20;nan
7309;BME280;3695;53.330;9.876;2023-06-24T08:26:54;102608.09;;;21.75;nan
7309;BME280;3695;53.330;9.876;2023-06-24T08:29:20;102520.38;;;21.77;nan
7309;BME280;3695;53.330;9.876;2023-06-24T08:31:47;102458.06;;;22.20;nan
7309;BME280;3695;53.330;9.876;2023-06-24T08:34:13;102407.59;;;21.86;nan
7309;BME280;3695;53.330;9.876;2023-06-24T08:36:41;102376.88;;;22.21;nan
7309;BME280;3695;53.330;9.876;2023-06-24T08:39:07;102355.03;;;21.97;nan
7309;BME280;3695;53.330;9.876;2023-06-24T08:41:34;102313.25;;;22.11;nan
7309;BME280;3695;53.330;9.876;2023-06-24T08:44:00;102253.22;;;22.55;nan
7309;BME280;3695;53.330;9.876;2023-06-24T08:46:27;102217.19;;;22.77;nan
7309;BME280;3695;53.330;9.876;2023-06-24T08:49:02;102188.25;;;22.84;nan
7309;BME280;3695;53.330;9.876;2023-06-24T08:51:31;102234.00;;;22.38;nan
7309;BME280;3695;53.330;9.876;2023-06-24T08:54:03;102207.03;;;22.82;nan
7309;BME280;3695;53.330;9.876;2023-06-24T08:56:29;102212.88;;;22.86;nan
7309;BME280;3695;53.330;9.876;2023-06-24T08:58:56;102221.13;;;22.81;nan
7309;BME280;3695;53.330;9.876;2023-06-24T09:01:22;102153.84;;;23.17;nan
7309;BME280;3695;53.330;9.876;2023-06-24T09:03:49;102216.94;;;22.46;nan
7309;BME280;3695;53.330;9.876;2023-06-24T09:06:16;102212.56;;;22.50;nan
7309;BME280;3695;53.330;9.876;2023-06-24T09:08:52;102147.50;;;23.17;nan
7309;BME280;3695;53.330;9.876;2023-06-24T09:11:23;102157.44;;;23.13;nan
7309;BME280;3695;53.330;9.876;2023-06-24T09:13:54;102160.53;;;23.21;nan
7309;BME280;3695;53.330;9.876;2023-06-24T09:16:21;102127.97;;;23.44;nan
7309;BME280;3695;53.330;9.876;2023-06-24T09:18:48;102170.56;;;23.38;nan
7309;BME280;3695;53.330;9.876;2023-06-24T09:21:21;102134.06;;;23.46;nan
7309;BME280;3695;53.330;9.876;2023-06-24T09:23:51;102228.81;;;23.16;nan
7309;BME280;3695;53.330;9.876;2023-06-24T09:26:18;102277.88;;;23.31;nan
7309;BME280;3695;53.330;9.876;2023-06-24T09:28:48;102343.13;;;22.89;nan
7309;BME280;3695;53.330;9.876;2023-06-24T09:31:15;102259.78;;;23.55;nan
7309;BME280;3695;53.330;9.876;2023-06-24T09:33:42;102246.09;;;23.96;nan
7309;BME280;3695;53.330;9.876;2023-06-24T09:36:11;102248.94;;;24.16;nan
7309;BME280;3695;53.330;9.876;2023-06-24T09:38:38;102319.09;;;23.69;nan
7309;BME280;3695;53.330;9.876;2023-06-24T09:41:06;102324.16;;;23.88;nan
7309;BME280;3695;53.330;9.876;2023-06-24T09:43:34;102331.56;;;24.29;nan
7309;BME280;3695;53.330;9.876;2023-06-24T09:46:02;102358.75;;;24.53;nan
7309;BME280;3695;53.330;9.876;2023-06-24T09:48:29;102300.03;;;24.81;nan
7309;BME280;3695;53.330;9.876;2023-06-24T09:50:59;102373.78;;;24.72;nan
7309;BME280;3695;53.330;9.876;2023-06-24T09:53:27;102430.94;;;24.78;nan
7309;BME280;3695;53.330;9.876;2023-06-24T09:55:56;102450.88;;;24.70;nan
7309;BME280;3695;53.330;9.876;2023-06-24T09:58:24;102580.03;;;24.18;nan
7309;BME280;3695;53.330;9.876;2023-06-24T10:00:51;102510.00;;;24.86;nan
7309;BME280;3695;53.330;9.876;2023-06-24T10:03:20;102530.25;;;24.86;nan
7309;BME280;3695;53.330;9.876;2023-06-24T10:05:48;102544.53;;;25.25;nan
7309;BME280;3695;53.330;9.876;2023-06-24T10:08:14;102576.53;;;24.80;nan
7309;BME280;3695;53.330;9.876;2023-06-24T10:10:41;102615.06;;;24.77;nan
7309;BME280;3695;53.330;9.876;2023-06-24T10:13:07;102622.28;;;24.78;nan
7309;BME280;3695;53.330;9.876;2023-06-24T10:15:35;102667.63;;;24.57;nan
7309;BME280;3695;53.330;9.876;2023-06-24T10:18:02;102652.41;;;25.06;nan
7309;BME280;3695;53.330;9.876;2023-06-24T10:20:36;102618.22;;;25.79;nan
7309;BME280;3695;53.330;9.876;2023-06-24T10:23:05;102783.59;;;24.65;nan
7309;BME280;3695;53.330;9.876;2023-06-24T10:25:36;102692.53;;;25.41;nan
7309;BME280;3695;53.330;9.876;2023-06-24T10:28:03;102729.38;;;25.26;nan
7309;BME280;3695;53.330;9.876;2023-06-24T10:30:29;102768.84;;;24.96;nan
7309;BME280;3695;53.330;9.876;2023-06-24T10:32:58;102822.16;;;25.35;nan
7309;BME280;3695;53.330;9.876;2023-06-24T10:35:26;102827.72;;;25.93;nan
7309;BME280;3695;53.330;9.876;2023-06-24T10:37:57;102964.06;;;24.36;nan
7309;BME280;3695;53.330;9.876;2023-06-24T10:40:37;103050.56;;;24.82;nan
7309;BME280;3695;53.330;9.876;2023-06-24T10:43:24;103101.53;;;25.47;nan
7309;BME280;3695;53.330;9.876;2023-06-24T10:45:53;103132.25;;;25.35;nan
7309;BME280;3695;53.330;9.876;2023-06-24T10:48:19;103078.72;;;25.66;nan
7309;BME280;3695;53.330;9.876;2023-06-24T10:50:46;103124.59;;;25.69;nan
7309;BME280;3695;53.330;9.876;2023-06-24T10:53:14;103135.91;;;25.94;nan
7309;BME280;3695;53.330;9.876;2023-06-24T10:55:41;103215.66;;;25.45;nan
7309;BME280;3695;53.330;9.876;2023-06-24T10:58:08;103164.03;;;25.71;nan
7309;BME280;3695;53.330;9.876;2023-06-24T11:00:35;103154.47;;;25.62;nan
7309;BME280;3695;53.330;9.876;2023-06-24T11:03:08;103158.44;;;25.98;nan
7309;BME280;3695;53.330;9.876;2023-06-24T11:05:38;103195.41;;;26.30;nan
7309;BME280;3695;53.330;9.876;2023-06-24T11:08:05;103189.47;;;26.17;nan
7309;BME280;3695;53.330;9.876;2023-06-24T11:10:32;103231.97;;;25.85;nan
7309;BME280;3695;53.330;9.876;2023-06-24T11:13:05;103134.94;;;26.48;nan
7309;BME280;3695;53.330;9.876;2023-06-24T11:15:32;103151.69;;;25.89;nan
7309;BME280;3695;53.330;9.876;2023-06-24T11:18:02;103056.19;;;26.42;nan
7309;BME280;3695;53.330;9.876;2023-06-24T11:20:28;103094.41;;;25.83;nan
7309;BME280;3695;53.330;9.876;2023-06-24T11:22:55;102576.53;;;26.29;nan
7309;BME280;3695;53.330;9.876;2023-06-24T11:25:21;102443.78;;;25.55;nan
7309;BME280;3695;53.330;9.876;2023-06-24T11:27:50;102307.72;;;25.70;nan
7309;BME280;3695;53.330;9.876;2023-06-24T11:30:18;102251.81;;;25.87;nan
7309;BME280;3695;53.330;9.876;2023-06-24T11:32:45;102202.44;;;26.18;nan
7309;BME280;3695;53.330;9.876;2023-06-24T11:35:13;102174.41;;;26.49;nan
7309;BME280;3695;53.330;9.876;2023-06-24T11:37:41;102140.16;;;26.82;nan
7309;BME280;3695;53.330;9.876;2023-06-24T11:40:09;102089.72;;;26.89;nan
7309;BME280;3695;53.330;9.876;2023-06-24T11:42:36;102111.16;;;26.30;nan
7309;BME280;3695;53.330;9.876;2023-06-24T11:45:06;102037.06;;;26.74;nan
7309;BME280;3695;53.330;9.876;2023-06-24T11:47:33;102016.56;;;26.88;nan
7309;BME280;3695;53.330;9.876;2023-06-24T11:50:01;101988.66;;;26.93;nan
7309;BME280;3695;53.330;9.876;2023-06-24T11:52:41;102038.00;;;26.88;nan
7309;BME280;3695;53.330;9.876;2023-06-24T11:55:12;102000.66;;;26.70;nan
7309;BME280;3695;53.330;9.876;2023-06-24T11:57:53;102057.22;;;26.84;nan
7309;BME280;3695;53.330;9.876;2023-06-24T12:00:23;102060.72;;;26.71;nan
7309;BME280;3695;53.330;9.876;2023-06-24T12:02:50;102012.72;;;27.27;nan
7309;BME280;3695;53.330;9.876;2023-06-24T12:05:26;102107.38;;;26.79;nan
7309;BME280;3695;53.330;9.876;2023-06-24T12:07:55;102116.31;;;26.76;nan
7309;BME280;3695;53.330;9.876;2023-06-24T12:10:22;102073.22;;;27.59;nan
7309;BME280;3695;53.330;9.876;2023-06-24T12:12:48;102094.44;;;27.36;nan
7309;BME280;3695;53.330;9.876;2023-06-24T12:15:15;102012.63;;;28.02;nan
7309;BME280;3695;53.330;9.876;2023-06-24T12:17:42;102050.50;;;27.71;nan
7309;BME280;3695;53.330;9.876;2023-06-24T12:20:09;102144.94;;;27.91;nan
7309;BME280;3695;53.330;9.876;2023-06-24T12:22:36;102242.34;;;26.72;nan
7309;BME280;3695;53.330;9.876;2023-06-24T12:25:03;102132.03;;;27.15;nan
7309;BME280;3695;53.330;9.876;2023-06-24T12:27:30;102148.72;;;27.15;nan
7309;BME280;3695;53.330;9.876;2023-06-24T12:29:56;101903.78;;;27.15;nan
7309;BME280;3695;53.330;9.876;2023-06-24T12:32:23;102414.88;;;27.11;nan
7309;BME280;3695;53.330;9.876;2023-06-24T12:34:50;102603.50;;;28.07;nan
7309;BME280;3695;53.330;9.876;2023-06-24T12:37:17;102695.47;;;27.04;nan
7309;BME280;3695;53.330;9.876;2023-06-24T12:39:44;102678.53;;;28.04;nan
7309;BME280;3695;53.330;9.876;2023-06-24T12:42:11;102735.75;;;27.96;nan
7309;BME280;3695;53.330;9.876;2023-06-24T12:44:37;102793.09;;;27.33;nan
7309;BME280;3695;53.330;9.876;2023-06-24T12:47:04;102782.03;;;27.12;nan
7309;BME280;3695;53.330;9.876;2023-06-24T12:49:31;102799.28;;;27.14;nan
7309;BME280;3695;53.330;9.876;2023-06-24T12:51:59;102809.47;;;27.65;nan
7309;BME280;3695;53.330;9.876;2023-06-24T12:54:25;102802.28;;;27.33;nan
7309;BME280;3695;53.330;9.876;2023-06-24T12:56:51;102830.94;;;27.39;nan
7309;BME280;3695;53.330;9.876;2023-06-24T12:59:18;102826.06;;;27.95;nan
7309;BME280;3695;53.330;9.876;2023-06-24T13:01:44;102828.44;;;28.17;nan
7309;BME280;3695;53.330;9.876;2023-06-24T13:04:11;102844.88;;;28.24;nan
7309;BME280;3695;53.330;9.876;2023-06-24T13:06:37;102830.94;;;28.18;nan
7309;BME280;3695;53.330;9.876;2023-06-24T13:09:06;102822.72;;;27.88;nan
7309;BME280;3695;53.330;9.876;2023-06-24T13:11:33;102800.78;;;27.76;nan
7309;BME280;3695;53.330;9.876;2023-06-24T13:13:59;102772.28;;;28.34;nan
7309;BME280;3695;53.330;9.876;2023-06-24T13:16:25;102744.50;;;28.92;nan
7309;BME280;3695;53.330;9.876;2023-06-24T13:18:52;102774.97;;;28.49;nan
7309;BME280;3695;53.330;9.876;2023-06-24T13:21:18;102731.78;;;29.04;nan
7309;BME280;3695;53.330;9.876;2023-06-24T13:23:45;102741.84;;;28.42;nan
7309;BME280;3695;53.330;9.876;2023-06-24T13:26:13;102676.38;;;28.30;nan
7309;BME280;3695;53.330;9.876;2023-06-24T13:28:39;102720.16;;;28.63;nan
7309;BME280;3695;53.330;9.876;2023-06-24T13:31:06;102658.06;;;28.18;nan
7309;BME280;3695;53.330;9.876;2023-06-24T13:33:32;102687.06;;;28.17;nan
7309;BME280;3695;53.330;9.876;2023-06-24T13:35:59;102618.16;;;28.52;nan